createdAt,value
2019-04-29T00:01:56.433Z,2.00
2019-04-29T00:04:25.735Z,2.30
2019-04-29T00:06:55.027Z,2.30
2019-04-29T00:09:24.539Z,2.33
2019-04-29T00:11:53.803Z,2.52
2019-04-29T00:14:24.241Z,2.33
2019-04-29T00:16:55.195Z,2.40
2019-04-29T00:19:26.234Z,2.33
2019-04-29T00:21:55.540Z,2.40
2019-04-29T00:24:24.945Z,2.50
2019-04-29T00:26:57.177Z,2.40
2019-04-29T00:29:26.641Z,2.52
2019-04-29T00:31:56.158Z,2.77
2019-04-29T00:34:25.738Z,2.52
2019-04-29T00:36:57.686Z,2.62
2019-04-29T00:39:31.668Z,2.80
2019-04-29T00:42:20.916Z,3.00
2019-04-29T00:44:50.282Z,2.70
2019-04-29T00:47:19.623Z,2.90
2019-04-29T00:49:48.941Z,2.90
2019-04-29T00:52:18.706Z,3.00
2019-04-29T00:54:49.771Z,3.02
2019-04-29T00:57:19.046Z,2.87
2019-04-29T00:59:48.296Z,3.10
2019-04-29T01:02:17.995Z,2.77
2019-04-29T01:04:47.262Z,3.22
2019-04-29T01:07:16.801Z,2.95
2019-04-29T01:09:46.362Z,3.40
2019-04-29T01:12:15.961Z,2.80
2019-04-29T01:14:45.500Z,3.50
2019-04-29T01:17:14.792Z,3.62
2019-04-29T01:19:44.202Z,3.00
2019-04-29T01:22:13.483Z,3.17
2019-04-29T01:24:42.933Z,3.12
2019-04-29T01:27:16.749Z,3.15
2019-04-29T01:29:46.273Z,3.27
2019-04-29T01:32:15.522Z,3.47
2019-04-29T01:34:52.406Z,3.35
2019-04-29T01:37:23.425Z,3.58
2019-04-29T01:39:54.333Z,3.25
2019-04-29T01:42:25.301Z,3.25
2019-04-29T01:44:54.774Z,3.77
2019-04-29T01:47:24.146Z,3.45
2019-04-29T01:49:53.450Z,4.30
2019-04-29T01:52:22.711Z,3.95
2019-04-29T01:54:52.245Z,3.98
2019-04-29T01:57:21.674Z,3.52
2019-04-29T01:59:50.985Z,3.92
2019-04-29T02:02:20.282Z,4.20
2019-04-29T02:04:49.725Z,3.65
2019-04-29T02:07:19.028Z,4.05
2019-04-29T02:09:58.957Z,4.42
2019-04-29T02:12:28.230Z,4.03
2019-04-29T02:14:57.486Z,4.45
2019-04-29T02:17:26.766Z,3.42
2019-04-29T02:19:56.120Z,4.37
2019-04-29T02:22:30.147Z,4.33
2019-04-29T02:25:01.182Z,4.30
2019-04-29T02:27:30.630Z,4.37
2019-04-29T02:29:59.886Z,4.62
2019-04-29T02:32:29.151Z,4.15
2019-04-29T02:34:58.404Z,4.25
2019-04-29T02:37:29.311Z,4.37
2019-04-29T02:40:00.295Z,4.80
2019-04-29T02:42:40.594Z,4.08
2019-04-29T02:45:11.508Z,4.60
2019-04-29T02:47:40.921Z,4.72
2019-04-29T02:50:10.539Z,5.12
2019-04-29T02:52:39.791Z,5.00
2019-04-29T02:55:10.813Z,4.65
2019-04-29T02:57:44.663Z,4.80
2019-04-29T03:00:21.955Z,4.55
2019-04-29T03:02:58.630Z,4.65
2019-04-29T03:05:29.561Z,4.58
2019-04-29T03:07:59.073Z,5.00
2019-04-29T03:10:28.553Z,4.62
2019-04-29T03:12:58.087Z,4.83
2019-04-29T03:15:31.233Z,4.60
2019-04-29T03:18:00.887Z,4.78
2019-04-29T03:20:31.827Z,4.90
2019-04-29T03:23:08.936Z,4.87
2019-04-29T03:25:38.270Z,4.78
2019-04-29T03:28:07.506Z,4.95
2019-04-29T03:30:37.758Z,4.87
2019-04-29T03:33:07.042Z,4.50
2019-04-29T03:35:36.558Z,4.60
2019-04-29T03:38:06.246Z,5.30
2019-04-29T03:40:35.804Z,5.37
2019-04-29T03:43:05.328Z,5.60
2019-04-29T03:45:34.728Z,4.83
2019-04-29T03:48:03.984Z,5.08
2019-04-29T03:50:33.457Z,5.03
2019-04-29T03:53:02.730Z,5.10
2019-04-29T03:55:39.627Z,5.40
2019-04-29T03:58:02.983Z,5.60
2019-04-29T04:00:32.335Z,5.70
2019-04-29T04:03:03.259Z,5.72
2019-04-29T04:05:36.770Z,5.87
2019-04-29T04:08:13.659Z,5.50
2019-04-29T04:10:43.118Z,5.20
2019-04-29T04:13:13.333Z,5.92
2019-04-29T04:15:43.038Z,5.25
2019-04-29T04:18:19.862Z,5.55
2019-04-29T04:20:49.572Z,6.05
2019-04-29T04:23:18.820Z,5.53
2019-04-29T04:25:48.398Z,6.58
2019-04-29T04:28:17.928Z,5.58
2019-04-29T04:30:47.326Z,6.10
2019-04-29T04:33:16.679Z,5.60
2019-04-29T04:35:46.067Z,5.83
2019-04-29T04:38:15.347Z,5.75
2019-04-29T04:40:46.351Z,5.87
2019-04-29T04:43:15.610Z,6.03
2019-04-29T04:45:45.052Z,6.33
2019-04-29T04:48:14.507Z,5.47
2019-04-29T04:50:43.888Z,5.62
2019-04-29T04:53:13.447Z,5.37
2019-04-29T04:55:44.643Z,5.83
2019-04-29T04:58:13.991Z,5.75
2019-04-29T05:00:43.370Z,5.78
2019-04-29T05:03:12.925Z,5.78
2019-04-29T05:05:42.786Z,5.50
2019-04-29T05:08:12.181Z,6.58
2019-04-29T05:10:41.597Z,5.75
2019-04-29T05:13:11.222Z,5.92
2019-04-29T05:15:40.582Z,5.95
2019-04-29T05:18:10.268Z,5.92
2019-04-29T05:20:39.842Z,7.10
2019-04-29T05:23:09.130Z,5.85
2019-04-29T05:25:38.473Z,5.90
2019-04-29T05:28:07.746Z,6.10
2019-04-29T05:30:37.114Z,6.30
2019-04-29T05:33:06.836Z,5.80
2019-04-29T05:35:46.841Z,5.67
2019-04-29T05:38:18.115Z,6.08
2019-04-29T05:40:56.738Z,6.42
2019-04-29T05:43:35.205Z,5.80
2019-04-29T05:46:08.973Z,6.03
2019-04-29T05:48:38.310Z,6.15
2019-04-29T05:51:09.265Z,5.35
2019-04-29T05:53:54.999Z,6.22
2019-04-29T05:56:20.874Z,5.75
2019-04-29T05:58:51.132Z,6.08
2019-04-29T06:01:22.014Z,6.08
2019-04-29T06:03:51.748Z,6.30
2019-04-29T06:06:20.999Z,5.37
2019-04-29T06:08:51.260Z,5.55
2019-04-29T06:11:23.255Z,5.37
2019-04-29T06:13:51.546Z,5.60
2019-04-29T06:16:22.644Z,5.42
2019-04-29T06:18:59.381Z,5.70
2019-04-29T06:21:23.132Z,5.78
2019-04-29T06:23:54.552Z,5.67
2019-04-29T06:26:23.386Z,5.40
2019-04-29T06:28:52.641Z,5.40
2019-04-29T06:31:22.057Z,5.37
2019-04-29T06:33:51.593Z,5.37
2019-04-29T06:36:21.889Z,5.75
2019-04-29T06:38:51.522Z,5.72
2019-04-29T06:41:20.892Z,5.40
2019-04-29T06:43:55.612Z,5.03
2019-04-29T06:46:23.094Z,5.12
2019-04-29T06:48:52.384Z,6.00
2019-04-29T06:51:21.769Z,5.85
2019-04-29T06:53:51.062Z,5.10
2019-04-29T06:56:20.623Z,5.30
2019-04-29T06:58:49.900Z,5.40
2019-04-29T07:01:19.462Z,6.15
2019-04-29T07:03:48.767Z,5.80
2019-04-29T07:06:18.050Z,6.97
2019-04-29T07:08:48.349Z,5.28
2019-04-29T07:11:18.365Z,5.50
2019-04-29T07:13:47.757Z,6.08
2019-04-29T07:16:17.225Z,5.70
2019-04-29T07:18:51.252Z,6.08
2019-04-29T07:21:17.657Z,6.05
2019-04-29T07:23:47.205Z,6.42
2019-04-29T07:26:16.531Z,5.72
2019-04-29T07:28:48.768Z,6.12
2019-04-29T07:31:17.171Z,5.85
2019-04-29T07:33:46.601Z,6.75
2019-04-29T07:36:18.650Z,7.25
2019-04-29T07:38:51.711Z,5.35
2019-04-29T07:41:19.178Z,6.10
2019-04-29T07:43:48.753Z,5.83
2019-04-29T07:46:22.606Z,6.22
2019-04-29T07:49:01.240Z,6.50
2019-04-29T07:51:23.171Z,5.85
2019-04-29T07:53:52.568Z,5.85
2019-04-29T07:56:21.872Z,6.42
2019-04-29T07:58:51.129Z,7.05
2019-04-29T08:01:24.337Z,6.37
2019-04-29T08:03:51.304Z,6.35
2019-04-29T08:06:21.950Z,6.83
2019-04-29T08:08:55.084Z,6.60
2019-04-29T08:11:22.486Z,6.15
2019-04-29T08:13:51.792Z,6.62
2019-04-29T08:16:21.519Z,7.05
2019-04-29T08:28:52.922Z,6.55
2019-04-29T08:31:22.318Z,6.80
2019-04-29T08:33:51.641Z,6.55
2019-04-29T08:36:21.189Z,6.42
2019-04-29T08:38:50.582Z,6.67
2019-04-29T08:41:21.031Z,6.53
2019-04-29T08:44:15.209Z,7.58
2019-04-29T08:46:44.446Z,7.30
2019-04-29T08:49:14.566Z,6.95
2019-04-29T08:51:42.461Z,7.17
2019-04-29T08:54:11.818Z,7.37
2019-04-29T08:57:01.865Z,7.95
2019-04-29T08:59:12.020Z,7.95
2019-04-29T09:01:41.422Z,8.03
2019-04-29T09:04:10.815Z,8.03
2019-04-29T09:06:40.217Z,8.23
2019-04-29T09:09:28.159Z,7.95
2019-04-29T09:11:43.523Z,8.00
2019-04-29T09:14:13.023Z,8.23
2019-04-29T09:16:42.695Z,9.05
2019-04-29T09:19:11.948Z,9.33
2019-04-29T09:21:42.865Z,9.28
2019-04-29T09:24:12.250Z,8.63
2019-04-29T09:26:43.223Z,8.98
2019-04-29T09:29:32.020Z,9.28
2019-04-29T09:32:02.741Z,8.95
2019-04-29T09:34:32.249Z,9.13
2019-04-29T09:37:01.637Z,9.48
2019-04-29T09:39:42.851Z,9.73
2019-04-29T09:42:13.210Z,9.58
2019-04-29T09:44:44.992Z,9.95
2019-04-29T09:47:15.136Z,9.88
2019-04-29T09:49:44.591Z,9.73
2019-04-29T09:52:14.234Z,9.98
2019-04-29T09:54:43.681Z,9.48
2019-04-29T09:57:13.334Z,9.43
2019-04-29T10:00:07.148Z,9.08
2019-04-29T10:02:49.248Z,8.95
2019-04-29T10:05:23.836Z,9.75
2019-04-29T10:07:53.741Z,9.85
2019-04-29T10:10:23.144Z,10.25
2019-04-29T10:12:54.033Z,9.03
2019-04-29T10:15:25.551Z,9.85
2019-04-29T10:17:56.707Z,9.60
2019-04-29T10:20:30.690Z,9.53
2019-04-29T10:23:00.009Z,9.70
2019-04-29T10:25:29.413Z,8.78
2019-04-29T10:27:58.829Z,8.25
2019-04-29T10:30:31.119Z,7.97
2019-04-29T10:33:02.281Z,7.92
2019-04-29T10:35:31.679Z,8.13
2019-04-29T10:38:02.816Z,8.43
2019-04-29T10:40:40.615Z,8.95
2019-04-29T10:43:15.345Z,8.85
2019-04-29T10:46:00.158Z,7.60
2019-04-29T10:51:07.147Z,5.80
2019-04-29T10:53:36.759Z,6.10
2019-04-29T10:56:07.011Z,6.30
2019-04-29T10:58:36.440Z,6.50
2019-04-29T11:01:29.142Z,7.62
2019-04-29T11:04:00.771Z,6.50
2019-04-29T11:06:31.487Z,6.12
2019-04-29T11:09:01.529Z,6.33
2019-04-29T11:11:33.396Z,5.42
2019-04-29T11:14:03.155Z,5.15
2019-04-29T11:16:46.104Z,5.70
2019-04-29T11:19:05.514Z,6.03
2019-04-29T11:21:38.645Z,5.92
2019-04-29T11:24:08.250Z,4.85
2019-04-29T11:26:55.367Z,4.03
2019-04-29T11:29:27.455Z,3.70
2019-04-29T11:31:57.409Z,3.87
2019-04-29T11:34:28.345Z,3.90
2019-04-29T11:36:57.671Z,3.72
2019-04-29T11:39:27.006Z,3.92
2019-04-29T11:48:59.698Z,4.28
2019-04-29T11:51:41.366Z,4.85
2019-04-29T11:54:08.258Z,4.50
2019-04-29T11:56:35.667Z,3.70
2019-04-29T11:59:09.629Z,4.20
2019-04-29T12:01:47.228Z,4.00
2019-04-29T12:04:14.466Z,3.70
2019-04-29T12:06:43.916Z,3.70
2019-04-29T12:09:13.227Z,4.35
2019-04-29T12:11:42.773Z,3.60
2019-04-29T12:14:16.273Z,3.58
2019-04-29T12:16:50.181Z,3.90
2019-04-29T12:19:23.923Z,4.17
2019-04-29T12:21:53.217Z,4.35
2019-04-29T12:24:22.795Z,4.03
2019-04-29T12:26:52.182Z,4.20
2019-04-29T12:29:21.743Z,4.25
2019-04-29T12:31:55.488Z,4.40
2019-04-29T12:34:26.834Z,4.75
2019-04-29T12:36:56.939Z,4.95
2019-04-29T12:39:43.872Z,4.28
2019-04-29T12:42:12.275Z,3.83
2019-04-29T12:44:49.177Z,3.98
2019-04-29T12:47:26.790Z,4.30
2019-04-29T12:56:37.603Z,4.67
2019-04-29T12:59:06.986Z,5.70
2019-04-29T13:01:51.017Z,8.45
2019-04-29T13:04:14.465Z,5.33
2019-04-29T13:06:43.207Z,5.03
2019-04-29T13:09:17.824Z,5.83
2019-04-29T13:11:48.463Z,5.42
2019-04-29T13:14:16.388Z,6.03
2019-04-29T13:16:55.652Z,5.65
2019-04-29T13:19:34.650Z,5.62
2019-04-29T13:22:03.908Z,6.10
2019-04-29T13:24:34.267Z,6.25
2019-04-29T13:27:15.638Z,6.25
2019-04-29T13:29:36.093Z,6.28
2019-04-29T13:32:05.910Z,5.00
2019-04-29T13:34:37.789Z,5.00
2019-04-29T13:37:08.208Z,5.70
2019-04-29T13:39:40.249Z,5.97
2019-04-29T13:42:15.076Z,5.65
2019-04-29T13:44:42.685Z,5.78
2019-04-29T13:47:13.134Z,11.75
2019-04-29T13:49:49.421Z,5.30
2019-04-29T13:52:18.084Z,6.40
2019-04-29T13:54:47.573Z,4.95
2019-04-29T13:57:16.972Z,4.85
2019-04-29T14:00:03.911Z,4.78
2019-04-29T14:02:36.974Z,4.50
2019-04-29T14:05:08.601Z,4.55
2019-04-29T14:07:39.612Z,4.30
2019-04-29T14:10:10.109Z,3.92
2019-04-29T14:12:48.230Z,4.85
2019-04-29T14:15:11.388Z,4.45
2019-04-29T14:17:40.750Z,4.58
2019-04-29T14:20:10.823Z,4.40
2019-04-29T14:22:41.005Z,5.03
2019-04-29T14:25:13.329Z,5.53
2019-04-29T14:27:41.861Z,5.12
2019-04-29T14:30:14.322Z,5.00
2019-04-29T14:32:46.967Z,4.87
2019-04-29T14:35:16.754Z,5.30
2019-04-29T14:37:55.004Z,5.20
2019-04-29T14:40:17.321Z,4.58
2019-04-29T14:42:57.947Z,4.83
2019-04-29T14:45:35.636Z,4.40
2019-04-29T14:48:22.659Z,5.00
2019-04-29T14:50:54.051Z,5.78
2019-04-29T14:53:26.215Z,5.10
2019-04-29T14:55:55.514Z,5.58
2019-04-29T14:58:25.521Z,5.62
2019-04-29T15:00:56.734Z,5.67
2019-04-29T15:03:27.666Z,6.22
2019-04-29T15:05:57.024Z,7.30
2019-04-29T15:08:26.340Z,6.45
2019-04-29T15:10:55.637Z,6.60
2019-04-29T15:13:25.891Z,6.47
2019-04-29T15:16:04.262Z,6.20
2019-04-29T15:18:47.457Z,5.80
2019-04-29T15:21:12.830Z,6.12
2019-04-29T15:23:42.886Z,5.55
2019-04-29T15:26:12.162Z,5.62
2019-04-29T15:28:53.503Z,6.33
2019-04-29T15:31:23.472Z,5.83
2019-04-29T15:33:52.807Z,5.12
2019-04-29T15:36:22.098Z,5.97
2019-04-29T15:39:07.707Z,6.67
2019-04-29T15:41:29.853Z,7.10
2019-04-29T15:44:06.493Z,6.15
2019-04-29T15:46:24.362Z,6.00
2019-04-29T15:48:53.817Z,6.75
2019-04-29T15:51:23.422Z,6.00
2019-04-29T15:53:54.508Z,5.70
2019-04-29T15:56:28.894Z,6.37
2019-04-29T15:58:59.613Z,6.37
2019-04-29T16:01:27.884Z,6.20
2019-04-29T16:03:58.885Z,6.62
2019-04-29T16:06:40.039Z,7.30
2019-04-29T16:09:09.067Z,7.75
2019-04-29T16:11:57.037Z,33.78
2019-04-29T16:14:26.725Z,10.35
2019-04-29T16:16:56.085Z,8.58
2019-04-29T16:19:25.638Z,8.00
2019-04-29T16:21:54.952Z,8.40
2019-04-29T16:24:27.036Z,8.70
2019-04-29T16:26:55.375Z,7.78
2019-04-29T16:29:24.961Z,8.60
2019-04-29T16:34:26.819Z,9.43
2019-04-29T16:36:56.267Z,9.05
2019-04-29T16:39:25.523Z,9.13
2019-04-29T16:42:02.205Z,10.53
2019-04-29T16:44:36.086Z,10.38
2019-04-29T16:47:07.413Z,10.28
2019-04-29T16:49:37.397Z,9.83
2019-04-29T16:52:06.945Z,9.78
2019-04-29T16:54:36.334Z,9.95
2019-04-29T16:57:05.739Z,11.53
2019-04-29T16:59:35.056Z,9.78
2019-04-29T17:02:04.424Z,10.60
2019-04-29T17:04:33.772Z,11.43
2019-04-29T17:07:12.478Z,9.98
2019-04-29T17:09:38.536Z,9.98
2019-04-29T17:12:08.176Z,10.08
2019-04-29T17:15:02.347Z,9.70
2019-04-29T17:17:10.093Z,10.18
2019-04-29T17:19:39.670Z,10.60
2019-04-29T17:22:24.724Z,10.63
2019-04-29T17:24:42.783Z,10.38
2019-04-29T17:27:23.463Z,10.45
2019-04-29T17:30:12.007Z,11.03
2019-04-29T17:32:47.463Z,9.80
2019-04-29T17:35:17.131Z,8.93
2019-04-29T17:35:21.315Z,15.98
2019-04-29T17:37:45.586Z,10.80
2019-04-29T17:40:19.370Z,10.10
2019-04-29T17:42:50.549Z,10.53
2019-04-29T17:45:29.077Z,10.90
2019-04-29T17:48:06.247Z,11.08
2019-04-29T17:50:39.224Z,10.80
2019-04-29T17:53:09.843Z,10.28
2019-04-29T17:55:44.998Z,10.93
2019-04-29T17:58:19.759Z,10.98
2019-04-29T18:01:07.064Z,11.43
2019-04-29T18:03:52.922Z,11.30
2019-04-29T18:06:32.956Z,10.93
2019-04-29T18:09:04.949Z,10.50
2019-04-29T18:11:49.614Z,8.50
2019-04-29T18:14:07.250Z,7.53
2019-04-29T18:16:39.549Z,7.15
2019-04-29T18:19:10.734Z,6.80
2019-04-29T18:21:43.269Z,7.87
2019-04-29T18:24:18.032Z,7.83
2019-04-29T18:26:54.720Z,7.35
2019-04-29T18:29:25.806Z,8.70
2019-04-29T18:31:55.639Z,8.63
2019-04-29T18:34:25.274Z,8.08
2019-04-29T18:37:00.143Z,7.72
2019-04-29T18:39:31.496Z,7.87
2019-04-29T18:42:03.076Z,7.85
2019-04-29T18:44:31.515Z,8.18
2019-04-29T18:47:01.170Z,8.68
2019-04-29T18:49:30.774Z,8.05
2019-04-29T18:52:02.149Z,8.25
2019-04-29T18:54:31.045Z,8.43
2019-04-29T18:57:00.569Z,7.55
2019-04-29T18:59:33.383Z,7.55
2019-04-29T19:02:07.891Z,7.50
2019-04-29T19:04:36.806Z,8.13
2019-04-29T19:07:06.347Z,8.25
2019-04-29T19:09:37.355Z,7.45
2019-04-29T19:12:06.981Z,7.92
2019-04-29T19:14:36.234Z,8.08
2019-04-29T19:17:05.529Z,7.97
2019-04-29T19:19:39.062Z,7.40
2019-04-29T19:22:09.301Z,8.05
2019-04-29T19:24:38.171Z,7.58
2019-04-29T19:27:09.781Z,7.22
2019-04-29T19:29:43.185Z,7.22
2019-04-29T19:32:10.670Z,8.03
2019-04-29T19:34:43.468Z,7.72
2019-04-29T19:37:12.413Z,7.75
2019-04-29T19:39:42.159Z,8.10
2019-04-29T19:42:11.759Z,7.08
2019-04-29T19:44:41.289Z,8.43
2019-04-29T19:47:14.646Z,8.45
2019-04-29T19:49:44.655Z,9.00
2019-04-29T19:52:18.773Z,8.63
2019-04-29T19:54:43.730Z,10.10
2019-04-29T19:57:14.840Z,10.03
2019-04-29T19:59:51.475Z,10.10
2019-04-29T20:02:17.037Z,9.68
2019-04-29T20:04:52.201Z,9.13
2019-04-29T20:07:20.085Z,9.05
2019-04-29T20:09:59.881Z,9.50
2019-04-29T20:12:21.376Z,8.48
2019-04-29T20:14:58.713Z,9.03
2019-04-29T20:17:32.905Z,9.23
2019-04-29T20:20:16.116Z,9.73
2019-04-29T20:22:50.943Z,8.95
2019-04-29T20:25:16.840Z,8.53
2019-04-29T20:27:47.892Z,8.95
2019-04-29T20:30:20.654Z,8.28
2019-04-29T20:32:48.357Z,8.85
2019-04-29T20:35:18.262Z,9.48
2019-04-29T20:37:55.688Z,8.75
2019-04-29T20:40:19.091Z,10.25
2019-04-29T20:42:49.357Z,9.23
2019-04-29T20:45:20.158Z,10.55
2019-04-29T20:47:49.968Z,10.25
2019-04-29T20:50:19.424Z,10.40
2019-04-29T20:53:05.899Z,9.95
2019-04-29T20:55:36.606Z,10.32
2019-04-29T20:58:06.763Z,10.55
2019-04-29T21:00:37.914Z,9.65
2019-04-29T21:03:09.604Z,9.33
2019-04-29T21:05:47.407Z,9.60
2019-04-29T21:08:16.420Z,9.73
2019-04-29T21:10:43.057Z,9.45
2019-04-29T21:13:16.099Z,9.03
2019-04-29T21:15:59.660Z,8.50
2019-04-29T21:18:28.998Z,8.53
2019-04-29T21:20:59.602Z,9.23
2019-04-29T21:23:35.248Z,9.23
2019-04-29T21:26:05.302Z,9.68
2019-04-29T21:28:38.233Z,9.80
2019-04-29T21:31:05.131Z,9.30
2019-04-29T21:33:35.511Z,9.68
2019-04-29T21:36:09.333Z,9.10
2019-04-29T21:39:01.824Z,9.53
2019-04-29T21:41:45.795Z,9.65
2019-04-29T21:44:15.139Z,8.00
2019-04-29T21:46:45.248Z,8.33
2019-04-29T21:49:15.627Z,9.20
2019-04-29T21:51:46.546Z,9.45
2019-04-29T21:54:16.405Z,9.15
2019-04-29T21:56:47.940Z,9.45
2019-04-29T21:59:16.754Z,8.10
2019-04-29T22:01:46.293Z,9.25
2019-04-29T22:04:15.776Z,9.50
2019-04-29T22:06:45.867Z,9.88
2019-04-29T22:09:16.466Z,9.23
2019-04-29T22:11:46.974Z,9.10
2019-04-29T22:14:16.329Z,8.80
2019-04-29T22:16:47.493Z,9.03
2019-04-29T22:19:17.566Z,9.70
2019-04-29T22:21:46.920Z,8.73
2019-04-29T22:24:16.274Z,9.55
2019-04-29T22:26:45.646Z,10.25
2019-04-29T22:29:15.117Z,10.58
2019-04-29T22:31:45.887Z,9.88
2019-04-29T22:34:19.017Z,9.15
2019-04-29T22:36:48.259Z,10.08
2019-04-29T22:39:17.121Z,10.32
2019-04-29T22:41:48.755Z,9.45
2019-04-29T22:44:21.693Z,10.03
2019-04-29T22:46:49.958Z,9.95
2019-04-29T22:49:24.570Z,11.10
2019-04-29T22:51:54.582Z,10.30
2019-04-29T22:54:22.138Z,9.88
2019-04-29T22:56:56.024Z,9.70
2019-04-29T22:59:25.378Z,10.35
2019-04-29T23:01:55.665Z,11.08
2019-04-29T23:04:25.290Z,11.25
2019-04-29T23:06:54.720Z,10.78
2019-04-29T23:09:24.084Z,11.45
2019-04-29T23:11:55.596Z,11.15
2019-04-29T23:14:25.258Z,11.60
2019-04-29T23:16:55.593Z,11.97
2019-04-29T23:19:25.961Z,10.90
2019-04-29T23:21:59.661Z,13.53
2019-04-29T23:24:51.288Z,11.85
2019-04-29T23:27:19.628Z,12.25
2019-04-29T23:29:49.969Z,12.70
2019-04-29T23:32:19.348Z,12.35
2019-04-29T23:34:48.602Z,12.18
2019-04-29T23:37:19.479Z,12.40
2019-04-29T23:39:48.779Z,12.07
2019-04-29T23:42:18.324Z,12.68
2019-04-29T23:44:47.661Z,12.33
2019-04-29T23:47:17.811Z,11.25
2019-04-29T23:49:47.109Z,11.40
2019-04-29T23:52:17.977Z,11.90
2019-04-29T23:54:48.586Z,12.50
2019-04-29T23:57:23.719Z,12.10
